Time;durP1;ratioP1;P1;durP2;ratioP2;P2;SDS_P1;SDS_P2;PMS_P1;PMS_P2;Temp;Humidity;BMP_temperature;BMP_pressure;BME280_temperature;BME280_humidity;BME280_pressure;Samples;Min_cycle;Max_cycle;Signal;HPM_P1;HPM_P2
2023/05/23 00:00:58;;;;;;;39.08;20.42;;;14.60;99.90;;;;;;5136093;27;20098;-67
2023/05/23 00:03:24;;;;;;;34.47;20.98;;;14.60;99.90;;;;;;5154253;27;20554;-67
2023/05/23 00:05:50;;;;;;;34.08;20.40;;;14.60;99.90;;;;;;5154244;27;20039;-67
2023/05/23 00:08:16;;;;;;;35.28;21.08;;;14.60;99.90;;;;;;5154276;27;20194;-68
2023/05/23 00:10:43;;;;;;;24.90;19.67;;;14.60;99.90;;;;;;5136208;27;20046;-68
2023/05/23 00:13:11;;;;;;;32.65;18.70;;;14.60;99.90;;;;;;5136036;27;20039;-66
2023/05/23 00:15:40;;;;;;;29.83;20.35;;;14.60;99.90;;;;;;5154492;27;20039;-67
2023/05/23 00:18:13;;;;;;;26.88;19.58;;;14.60;99.90;;;;;;5154218;27;20042;-67
2023/05/23 00:20:40;;;;;;;;;;;14.60;99.90;;;;;;5154340;27;20559;-66
2023/05/23 00:23:12;;;;;;;27.33;19.55;;;14.50;99.90;;;;;;5135441;27;19919;-66
2023/05/23 00:25:39;;;;;;;31.70;17.80;;;14.50;99.90;;;;;;5154087;27;20122;-66
2023/05/23 00:28:05;;;;;;;30.00;20.33;;;14.50;99.90;;;;;;5154125;27;20125;-66
2023/05/23 00:30:32;;;;;;;27.58;17.88;;;14.50;99.90;;;;;;5154090;27;20085;-67
2023/05/23 00:32:59;;;;;;;27.50;17.60;;;14.50;99.90;;;;;;5135568;27;20046;-66
2023/05/23 00:35:25;;;;;;;31.98;16.95;;;14.50;99.90;;;;;;5153639;27;20472;-67
2023/05/23 00:37:51;;;;;;;29.15;18.17;;;14.50;99.90;;;;;;5154550;27;20051;-66
2023/05/23 00:40:17;;;;;;;24.85;18.10;;;14.50;99.90;;;;;;5135480;27;20053;-67
2023/05/23 00:42:43;;;;;;;23.60;16.23;;;14.50;99.90;;;;;;5135549;27;20042;-68
2023/05/23 00:45:11;;;;;;;23.63;15.18;;;14.50;99.90;;;;;;5135399;27;20095;-68
2023/05/23 00:47:38;;;;;;;24.00;15.30;;;14.50;99.90;;;;;;5153890;27;20047;-68
2023/05/23 00:50:10;;;;;;;23.23;16.05;;;14.50;99.90;;;;;;5135794;27;20537;-69
2023/05/23 00:52:37;;;;;;;20.52;14.75;;;14.40;99.90;;;;;;5135784;27;20377;-66
2023/05/23 00:55:03;;;;;;;21.73;15.90;;;14.40;99.90;;;;;;5153832;27;20050;-67
2023/05/23 00:57:29;;;;;;;20.55;14.35;;;14.40;99.90;;;;;;5135772;27;20090;-66
2023/05/23 00:59:55;;;;;;;22.48;16.00;;;14.30;99.90;;;;;;5153662;27;20078;-68
2023/05/23 01:02:21;;;;;;;24.05;17.00;;;14.30;99.90;;;;;;5154136;27;20426;-67
2023/05/23 01:04:53;;;;;;;22.42;15.80;;;14.30;99.90;;;;;;5153732;27;20103;-68
2023/05/23 01:07:22;;;;;;;28.33;18.07;;;14.30;99.90;;;;;;5153740;27;20046;-68
2023/05/23 01:09:49;;;;;;;23.30;16.80;;;14.20;99.90;;;;;;5153774;27;20078;-68
2023/05/23 01:12:39;;;;;;;24.63;18.52;;;14.30;99.90;;;;;;5153562;27;20079;-69
2023/05/23 01:15:09;;;;;;;27.73;19.20;;;14.30;99.90;;;;;;5154105;27;20046;-69
2023/05/23 01:18:07;;;;;;;25.30;17.25;;;14.20;99.90;;;;;;5154030;27;20039;-66
2023/05/23 01:20:55;;;;;;;26.25;18.73;;;14.20;99.90;;;;;;5154033;27;20187;-68
2023/05/23 01:23:55;;;;;;;26.75;17.35;;;14.20;99.90;;;;;;5153856;27;20466;-65
2023/05/23 01:26:58;;;;;;;25.23;16.60;;;14.10;99.90;;;;;;5153349;27;20078;-65
2023/05/23 01:29:42;;;;;;;20.33;16.45;;;14.10;99.90;;;;;;5153765;27;20078;-66
2023/05/23 01:32:11;;;;;;;18.55;13.77;;;14.10;99.90;;;;;;5134933;27;20500;-66
2023/05/23 01:34:38;;;;;;;20.98;14.15;;;14.10;99.90;;;;;;5153565;27;20134;-66
2023/05/23 01:37:18;;;;;;;15.55;12.65;;;14.00;99.90;;;;;;5138800;27;20039;-67
2023/05/23 01:39:44;;;;;;;15.75;12.18;;;14.00;99.90;;;;;;5139072;27;20468;-67
2023/05/23 01:42:10;;;;;;;19.42;13.45;;;14.10;99.90;;;;;;5139337;27;20046;-67
2023/05/23 01:44:38;;;;;;;17.00;13.52;;;14.00;99.90;;;;;;5138872;27;20053;-68
2023/05/23 01:47:07;;;;;;;15.60;12.02;;;14.00;99.90;;;;;;5138623;27;20095;-66
2023/05/23 01:49:34;;;;;;;16.40;12.02;;;14.00;99.90;;;;;;5157162;27;20053;-66
2023/05/23 01:52:01;;;;;;;18.50;11.68;;;14.00;99.90;;;;;;5157329;27;20047;-67
2023/05/23 01:54:31;;;;;;;11.18;9.48;;;13.90;99.90;;;;;;5156571;27;20062;-69
2023/05/23 01:56:57;;;;;;;13.48;9.93;;;14.00;99.90;;;;;;5156686;27;20039;-65
2023/05/23 01:59:23;;;;;;;21.27;10.93;;;13.90;99.90;;;;;;5121714;27;20371;-65
2023/05/23 02:01:49;;;;;;;21.08;11.43;;;13.80;99.90;;;;;;5156646;27;20046;-67
2023/05/23 02:04:15;;;;;;;20.83;10.50;;;13.70;99.90;;;;;;5156568;27;20049;-68
2023/05/23 02:06:41;;;;;;;16.48;11.35;;;13.70;99.90;;;;;;5138118;27;20047;-67
2023/05/23 02:09:07;;;;;;;17.45;11.43;;;13.60;99.90;;;;;;5156357;27;20051;-69
2023/05/23 02:11:34;;;;;;;20.05;11.10;;;13.60;99.90;;;;;;5156318;27;20103;-68
2023/05/23 02:14:01;;;;;;;16.30;10.55;;;13.50;99.90;;;;;;5156337;27;20138;-66
2023/05/23 02:16:27;;;;;;;21.00;11.50;;;13.80;99.90;;;;;;5138147;27;20047;-67
2023/05/23 02:18:55;;;;;;;17.52;10.90;;;13.50;99.90;;;;;;5138102;27;20049;-68
2023/05/23 02:21:23;;;;;;;22.25;10.65;;;13.50;99.90;;;;;;5138432;27;20089;-67
2023/05/23 02:23:49;;;;;;;17.90;11.23;;;13.50;99.90;;;;;;5138485;27;20103;-67
2023/05/23 02:26:15;;;;;;;27.42;11.88;;;13.40;99.90;;;;;;5121396;27;20055;-67
2023/05/23 02:28:41;;;;;;;21.77;11.00;;;13.40;99.90;;;;;;5156159;27;20123;-66
2023/05/23 02:31:06;;;;;;;20.27;11.43;;;13.40;99.90;;;;;;5156295;27;20054;-67
2023/05/23 02:33:32;;;;;;;26.10;12.70;;;13.30;99.90;;;;;;5156852;27;20050;-68
2023/05/23 02:35:58;;;;;;;21.58;10.75;;;13.30;99.90;;;;;;5156488;27;20061;-68
2023/05/23 02:38:25;;;;;;;17.15;10.70;;;13.30;99.90;;;;;;5156160;27;20038;-66
2023/05/23 02:40:52;;;;;;;21.25;10.95;;;13.30;99.90;;;;;;5155892;27;20400;-66
2023/05/23 02:43:18;;;;;;;23.10;11.15;;;13.20;99.90;;;;;;5121028;27;20082;-66
2023/05/23 02:45:44;;;;;;;15.05;9.35;;;13.20;99.90;;;;;;5155765;27;20043;-66
2023/05/23 02:48:10;;;;;;;16.30;9.27;;;13.10;99.90;;;;;;5155764;27;20039;-67
2023/05/23 02:50:36;;;;;;;14.85;8.48;;;13.00;99.90;;;;;;5137869;27;20078;-66
2023/05/23 02:53:02;;;;;;;9.68;6.85;;;13.00;99.90;;;;;;5137648;27;20049;-68
2023/05/23 02:55:28;;;;;;;12.85;6.75;;;13.00;99.90;;;;;;5138120;27;20046;-67
2023/05/23 02:57:54;;;;;;;13.30;7.22;;;13.00;99.90;;;;;;5137037;27;20043;-67
2023/05/23 03:00:20;;;;;;;11.77;7.28;;;12.90;99.90;;;;;;5155266;27;20047;-68
2023/05/23 03:02:45;;;;;;;13.88;7.15;;;12.90;99.90;;;;;;5155717;27;20130;-67
2023/05/23 03:05:11;;;;;;;19.70;8.18;;;12.90;99.90;;;;;;5155557;27;20089;-68
2023/05/23 03:07:36;;;;;;;16.08;8.57;;;12.90;99.90;;;;;;5155710;27;20053;-66
2023/05/23 03:10:02;;;;;;;17.45;9.40;;;12.80;99.90;;;;;;5155898;27;20038;-68
2023/05/23 03:12:28;;;;;;;26.30;10.57;;;12.80;99.90;;;;;;5155650;27;20133;-68
2023/05/23 03:14:54;;;;;;;19.75;9.35;;;12.80;99.90;;;;;;5155422;27;20050;-68
2023/05/23 03:17:20;;;;;;;18.80;9.63;;;12.80;99.90;;;;;;5155019;27;20488;-68
2023/05/23 03:19:46;;;;;;;19.42;10.38;;;12.70;99.90;;;;;;5155498;27;20090;-66
2023/05/23 03:22:12;;;;;;;21.73;9.93;;;12.70;99.90;;;;;;5155195;27;20478;-66
2023/05/23 03:24:37;;;;;;;18.95;9.95;;;12.70;99.90;;;;;;5155294;27;20058;-67
2023/05/23 03:27:03;;;;;;;22.35;10.45;;;12.70;99.90;;;;;;5119579;27;20038;-68
2023/05/23 03:29:29;;;;;;;25.58;12.10;;;12.70;99.90;;;;;;5136543;27;20383;-66
2023/05/23 03:31:54;;;;;;;22.10;10.30;;;12.70;99.90;;;;;;5136595;27;20050;-67
2023/05/23 03:34:22;;;;;;;24.17;10.00;;;12.60;99.90;;;;;;5155943;27;20073;-66
2023/05/23 03:36:48;;;;;;;20.58;10.80;;;12.70;99.90;;;;;;5154994;27;20043;-66
2023/05/23 03:39:14;;;;;;;27.98;11.15;;;12.70;99.90;;;;;;5155341;27;20042;-67
2023/05/23 03:41:39;;;;;;;18.83;10.07;;;12.60;99.90;;;;;;5154692;27;20043;-67
2023/05/23 03:44:05;;;;;;;19.80;10.07;;;12.60;99.90;;;;;;5155081;27;20463;-68
2023/05/23 03:46:31;;;;;;;20.25;10.07;;;12.60;99.90;;;;;;5136800;27;20039;-66
2023/05/23 03:48:56;;;;;;;17.65;10.30;;;12.60;99.90;;;;;;5155080;27;20421;-68
2023/05/23 03:51:23;;;;;;;18.67;8.82;;;12.70;99.90;;;;;;5136297;27;20042;-68
2023/05/23 03:53:48;;;;;;;20.08;9.85;;;12.70;99.90;;;;;;5154856;27;20050;-67
2023/05/23 03:56:14;;;;;;;17.77;9.13;;;12.60;99.90;;;;;;5154971;27;20375;-67
2023/05/23 03:58:40;;;;;;;14.77;8.48;;;12.60;99.90;;;;;;5153987;27;20078;-68
2023/05/23 04:01:08;;;;;;;18.50;7.93;;;12.70;99.90;;;;;;5154915;27;20544;-67
2023/05/23 04:03:33;;;;;;;11.70;8.02;;;12.70;99.90;;;;;;5137029;27;20348;-67
2023/05/23 04:06:00;;;;;;;12.75;8.02;;;12.60;99.90;;;;;;5154345;27;20079;-69
2023/05/23 04:08:26;;;;;;;14.40;8.10;;;12.60;99.90;;;;;;5154419;27;20081;-68
2023/05/23 04:10:52;;;;;;;15.57;8.13;;;12.50;99.90;;;;;;5136151;27;20053;-67
2023/05/23 04:13:17;;;;;;;17.58;8.02;;;12.50;99.90;;;;;;5136042;27;20047;-68
2023/05/23 04:15:43;;;;;;;15.82;8.57;;;12.50;99.90;;;;;;5118908;27;20043;-67
2023/05/23 04:18:09;;;;;;;19.20;8.32;;;12.60;99.90;;;;;;5136202;27;20047;-67
2023/05/23 04:20:35;;;;;;;16.98;8.68;;;12.50;99.90;;;;;;5154262;27;20046;-68
2023/05/23 04:23:01;;;;;;;15.80;8.00;;;12.50;99.90;;;;;;5154345;27;20043;-68
2023/05/23 04:25:26;;;;;;;14.10;8.27;;;12.50;99.90;;;;;;5154004;27;20057;-67
2023/05/23 04:27:53;;;;;;;15.63;7.35;;;12.50;99.90;;;;;;5154179;27;20078;-69
2023/05/23 04:30:19;;;;;;;17.63;9.13;;;12.50;99.90;;;;;;5154106;27;20047;-67
2023/05/23 04:32:45;;;;;;;12.32;7.47;;;12.40;99.90;;;;;;5154121;27;20061;-68
2023/05/23 04:35:11;;;;;;;16.73;7.45;;;12.40;99.90;;;;;;5154471;27;20053;-67
2023/05/23 04:37:38;;;;;;;14.20;7.93;;;12.40;99.90;;;;;;5136050;27;20117;-67
2023/05/23 04:40:06;;;;;;;20.15;7.90;;;12.40;99.90;;;;;;5136516;27;20373;-68
2023/05/23 04:42:32;;;;;;;18.20;7.40;;;12.40;99.90;;;;;;5153931;27;20043;-67
2023/05/23 04:44:58;;;;;;;13.13;7.40;;;12.40;99.90;;;;;;5154392;27;20094;-68
2023/05/23 04:47:27;;;;;;;15.63;7.15;;;12.50;99.90;;;;;;5153877;27;20117;-66
2023/05/23 04:49:54;;;;;;;13.18;8.02;;;12.40;99.90;;;;;;5118741;27;20126;-67
2023/05/23 04:52:20;;;;;;;14.30;6.75;;;12.50;99.90;;;;;;5154002;27;20047;-67
2023/05/23 04:54:47;;;;;;;18.30;6.07;;;12.40;99.90;;;;;;5153828;27;20520;-68
2023/05/23 04:57:13;;;;;;;10.48;5.88;;;12.40;99.90;;;;;;5118200;27;20473;-68
2023/05/23 04:59:39;;;;;;;13.85;6.80;;;12.40;99.90;;;;;;5135162;27;20082;-67
2023/05/23 05:02:05;;;;;;;12.75;6.13;;;12.40;99.90;;;;;;5135139;27;20042;-67
2023/05/23 05:04:31;;;;;;;9.57;6.22;;;12.40;99.90;;;;;;5153857;27;20344;-66
2023/05/23 05:06:57;;;;;;;13.60;6.53;;;12.40;99.90;;;;;;5135076;27;20114;-68
2023/05/23 05:09:22;;;;;;;9.25;6.00;;;12.30;99.90;;;;;;5153543;27;20047;-68
2023/05/23 05:11:48;;;;;;;12.55;6.90;;;12.30;99.90;;;;;;5157258;27;20368;-67
2023/05/23 05:14:14;;;;;;;19.13;7.45;;;12.30;99.90;;;;;;5157382;27;20046;-67
2023/05/23 05:16:41;;;;;;;14.30;8.52;;;12.40;99.90;;;;;;5157895;27;20038;-67
2023/05/23 05:19:07;;;;;;;13.85;7.82;;;12.30;99.90;;;;;;5121950;27;20050;-66
2023/05/23 05:21:32;;;;;;;16.58;9.48;;;12.20;99.90;;;;;;5157832;27;20466;-69
2023/05/23 05:23:58;;;;;;;15.30;9.15;;;12.20;99.90;;;;;;5157347;27;20428;-67
2023/05/23 05:26:25;;;;;;;13.70;9.23;;;12.20;99.90;;;;;;5157740;27;20035;-68
2023/05/23 05:28:52;;;;;;;19.85;9.07;;;12.10;99.90;;;;;;5157341;27;20046;-68
2023/05/23 05:31:18;;;;;;;14.95;8.73;;;12.00;99.90;;;;;;5157921;27;20127;-69
2023/05/23 05:33:44;;;;;;;25.08;11.35;;;11.90;99.90;;;;;;5121563;27;20111;-67
2023/05/23 05:36:10;;;;;;;23.52;8.95;;;11.90;99.90;;;;;;5122141;27;20047;-67
2023/05/23 05:38:36;;;;;;;30.38;9.60;;;11.90;99.90;;;;;;5138825;27;20458;-67
2023/05/23 05:41:02;;;;;;;22.45;9.10;;;11.90;99.90;;;;;;5139114;27;20050;-66
2023/05/23 05:43:28;;;;;;;21.00;9.73;;;11.90;99.90;;;;;;5157418;27;20046;-68
2023/05/23 05:45:53;;;;;;;20.42;8.77;;;11.90;99.90;;;;;;5157373;27;20043;-68
2023/05/23 05:48:19;;;;;;;14.35;8.50;;;11.90;99.90;;;;;;5157304;27;20379;-69
2023/05/23 05:50:45;;;;;;;15.13;8.45;;;11.80;99.90;;;;;;5157168;27;20054;-67
2023/05/23 05:53:12;;;;;;;18.55;8.88;;;11.80;99.90;;;;;;5139233;27;20046;-67
2023/05/23 05:55:38;;;;;;;15.13;8.00;;;11.80;99.90;;;;;;5157075;27;20062;-69
2023/05/23 05:58:04;;;;;;;14.75;7.75;;;11.80;99.90;;;;;;5138872;27;20482;-69
2023/05/23 06:00:30;;;;;;;12.00;7.68;;;11.80;99.90;;;;;;5138195;27;20049;-68
2023/05/23 06:02:58;;;;;;;12.48;7.05;;;11.40;99.90;;;;;;5157336;27;20121;-68
2023/05/23 06:05:24;;;;;;;12.82;6.90;;;11.90;99.90;;;;;;5138460;27;20038;-68
2023/05/23 06:07:50;;;;;;;11.90;7.15;;;11.90;99.90;;;;;;5157152;27;20082;-69
2023/05/23 06:10:16;;;;;;;14.82;6.97;;;11.80;99.90;;;;;;5139054;27;20085;-69
2023/05/23 06:12:41;;;;;;;11.07;6.35;;;11.80;99.90;;;;;;5121247;27;20058;-68
2023/05/23 06:15:12;;;;;;;12.98;6.78;;;11.80;99.90;;;;;;5138665;27;20082;-69
2023/05/23 06:17:37;;;;;;;13.52;6.60;;;11.80;99.90;;;;;;5156808;27;20491;-68
2023/05/23 06:20:04;;;;;;;11.95;5.68;;;11.80;99.90;;;;;;5121915;27;20050;-69
2023/05/23 06:22:29;;;;;;;11.45;5.38;;;11.90;99.90;;;;;;5137435;27;20082;-68
2023/05/23 06:24:55;;;;;;;9.95;5.85;;;11.80;99.90;;;;;;5138041;27;20198;-68
2023/05/23 06:27:21;;;;;;;9.40;5.32;;;11.80;99.90;;;;;;5138350;27;20047;-68
2023/05/23 06:29:46;;;;;;;11.80;5.43;;;11.80;99.90;;;;;;5138417;27;20125;-68
2023/05/23 06:32:12;;;;;;;10.68;5.32;;;11.80;99.90;;;;;;5156343;27;20480;-70
2023/05/23 06:34:38;;;;;;;10.95;5.65;;;11.80;99.90;;;;;;5138331;27;20439;-70
2023/05/23 06:37:04;;;;;;;7.60;4.97;;;11.80;99.90;;;;;;5138595;27;20077;-69
2023/05/23 06:39:29;;;;;;;10.77;5.20;;;11.80;99.90;;;;;;5138105;27;20050;-69
2023/05/23 06:41:55;;;;;;;8.35;4.88;;;11.80;99.90;;;;;;5137940;27;20070;-69
2023/05/23 06:44:21;;;;;;;12.35;5.35;;;11.80;99.90;;;;;;5156604;27;20106;-68
2023/05/23 06:46:46;;;;;;;14.57;6.32;;;11.70;99.90;;;;;;5155772;27;20045;-68
2023/05/23 06:49:13;;;;;;;16.48;5.97;;;11.80;99.90;;;;;;5137727;27;20539;-67
2023/05/23 06:51:39;;;;;;;13.18;6.43;;;11.70;99.90;;;;;;5137329;27;20127;-69
2023/05/23 06:54:05;;;;;;;12.70;5.55;;;11.50;99.90;;;;;;5137724;27;20047;-68
2023/05/23 06:56:30;;;;;;;14.40;5.93;;;11.60;99.90;;;;;;5155791;27;20479;-68
2023/05/23 06:58:56;;;;;;;14.00;6.25;;;11.60;99.90;;;;;;5155699;27;20045;-68
2023/05/23 07:01:22;;;;;;;14.38;6.35;;;11.70;99.90;;;;;;5137537;27;20047;-68
2023/05/23 07:03:47;;;;;;;16.67;6.38;;;11.70;99.90;;;;;;5155890;27;20057;-68
2023/05/23 07:06:13;;;;;;;11.38;5.93;;;11.90;99.90;;;;;;5137363;27;20093;-69
2023/05/23 07:08:39;;;;;;;15.02;6.35;;;12.10;99.90;;;;;;5155681;27;20127;-68
2023/05/23 07:11:05;;;;;;;17.98;6.13;;;12.30;99.90;;;;;;5155812;27;20058;-69
2023/05/23 07:13:31;;;;;;;13.48;6.18;;;12.40;99.90;;;;;;5137255;27;20057;-69
2023/05/23 07:15:57;;;;;;;22.80;6.32;;;12.40;99.90;;;;;;5137348;27;20093;-68
2023/05/23 07:18:23;;;;;;;14.23;6.47;;;12.40;99.90;;;;;;5155414;27;20130;-68
2023/05/23 07:20:49;;;;;;;14.73;6.63;;;12.30;99.90;;;;;;5137211;27;20111;-69
2023/05/23 07:23:15;;;;;;;17.60;5.97;;;12.30;99.90;;;;;;5155357;27;20082;-69
2023/05/23 07:25:41;;;;;;;12.20;5.32;;;12.30;99.90;;;;;;5136713;27;20085;-69
2023/05/23 07:28:08;;;;;;;13.73;5.78;;;12.30;99.90;;;;;;5154755;27;20479;-69
2023/05/23 07:30:34;;;;;;;14.98;5.88;;;12.40;99.90;;;;;;5155412;27;20093;-69
2023/05/23 07:33:00;;;;;;;13.10;5.70;;;12.30;99.90;;;;;;5135509;27;20051;-69
2023/05/23 07:35:26;;;;;;;17.50;6.07;;;12.30;99.90;;;;;;5136378;27;20106;-68
2023/05/23 07:37:52;;;;;;;15.68;5.63;;;12.20;99.90;;;;;;5154611;27;20051;-68
2023/05/23 07:40:18;;;;;;;17.85;5.97;;;12.20;99.90;;;;;;5154915;27;20099;-69
2023/05/23 07:42:44;;;;;;;14.95;6.30;;;12.20;99.90;;;;;;5155206;27;20062;-69
2023/05/23 07:45:11;;;;;;;11.93;5.93;;;12.20;99.90;;;;;;5136988;27;20078;-69
2023/05/23 07:47:36;;;;;;;14.90;6.03;;;12.20;99.90;;;;;;5154581;27;20042;-69
2023/05/23 07:50:03;;;;;;;17.45;6.20;;;12.10;99.90;;;;;;5136143;27;20039;-69
2023/05/23 07:52:32;;;;;;;14.48;6.03;;;12.20;99.90;;;;;;5154619;27;20047;-68
2023/05/23 07:54:58;;;;;;;16.88;6.13;;;12.40;99.90;;;;;;5154229;27;20482;-68
2023/05/23 07:57:25;;;;;;;15.35;6.15;;;12.40;99.90;;;;;;5136454;27;20103;-69
2023/05/23 07:59:51;;;;;;;12.88;6.18;;;12.40;99.90;;;;;;5154814;27;20042;-69
2023/05/23 08:02:17;;;;;;;16.88;5.97;;;12.50;99.90;;;;;;5154110;27;20513;-68
2023/05/23 08:04:44;;;;;;;13.73;5.75;;;12.60;99.90;;;;;;5136698;27;20506;-69
2023/05/23 08:07:10;;;;;;;16.60;5.85;;;12.70;99.90;;;;;;5154237;27;20086;-69
2023/05/23 08:09:37;;;;;;;14.75;5.68;;;12.90;99.90;;;;;;5136015;27;20058;-70
2023/05/23 08:12:02;;;;;;;13.27;6.15;;;12.90;99.90;;;;;;5135600;27;20118;-69
2023/05/23 08:14:28;;;;;;;12.18;6.60;;;13.00;99.90;;;;;;5154103;27;20129;-69
2023/05/23 08:16:54;;;;;;;12.50;5.65;;;12.80;99.90;;;;;;5136136;27;20043;-69
2023/05/23 08:19:20;;;;;;;15.52;6.75;;;12.80;99.90;;;;;;5154617;27;20051;-70
2023/05/23 08:21:46;;;;;;;14.25;5.70;;;12.90;99.90;;;;;;5154880;27;20047;-69
2023/05/23 08:24:11;;;;;;;15.98;6.35;;;13.10;99.90;;;;;;5136130;27;20043;-69
2023/05/23 08:26:38;;;;;;;15.10;5.15;;;13.10;99.90;;;;;;5135818;27;20198;-71
2023/05/23 08:29:04;;;;;;;11.60;5.10;;;13.10;99.90;;;;;;5154331;27;20043;-69
2023/05/23 08:31:33;;;;;;;16.13;5.90;;;13.20;99.90;;;;;;5135622;27;20057;-68
2023/05/23 08:33:58;;;;;;;15.63;5.07;;;13.30;99.90;;;;;;5154699;27;20055;-69
2023/05/23 08:36:24;;;;;;;12.20;4.78;;;13.70;99.90;;;;;;5136264;27;20038;-68
2023/05/23 08:38:53;;;;;;;11.80;5.32;;;14.50;99.90;;;;;;5136512;27;20039;-70
2023/05/23 08:41:20;;;;;;;13.90;5.55;;;14.70;99.90;;;;;;5154177;27;20095;-69
2023/05/23 08:43:47;;;;;;;9.75;4.82;;;14.70;99.90;;;;;;5154572;27;20513;-72
2023/05/23 08:46:14;;;;;;;12.48;5.20;;;14.50;99.90;;;;;;5139909;27;20087;-70
2023/05/23 08:48:41;;;;;;;12.38;5.28;;;14.00;99.90;;;;;;5158880;27;20042;-67
2023/05/23 08:51:11;;;;;;;12.52;4.85;;;14.40;99.90;;;;;;5140731;27;20051;-71
2023/05/23 08:53:38;;;;;;;14.60;5.82;;;15.00;99.90;;;;;;5140614;27;20046;-68
2023/05/23 08:56:05;;;;;;;9.63;4.70;;;15.40;99.90;;;;;;5139645;27;20065;-69
2023/05/23 08:58:30;;;;;;;17.20;6.63;;;15.20;99.90;;;;;;5139843;27;20066;-69
2023/05/23 09:00:58;;;;;;;14.45;4.85;;;14.90;99.90;;;;;;5139805;27;20479;-69
2023/05/23 09:03:26;;;;;;;10.30;4.85;;;14.70;99.90;;;;;;5158118;27;20054;-69
2023/05/23 09:05:53;;;;;;;12.07;5.03;;;14.40;99.90;;;;;;5158083;27;20083;-69
2023/05/23 09:08:20;;;;;;;16.05;4.43;;;14.70;99.90;;;;;;5139966;27;20055;-69
2023/05/23 09:10:51;;;;;;;16.50;5.60;;;14.50;99.90;;;;;;5139483;27;20042;-71
2023/05/23 09:13:19;;;;;;;11.93;4.25;;;14.60;99.90;;;;;;5157947;27;20093;-69
2023/05/23 09:16:02;;;;;;;11.85;4.35;;;15.00;99.90;;;;;;5157822;27;20049;-69
2023/05/23 09:18:37;;;;;;;;;;;15.00;99.90;;;;;;5140352;27;20469;-69
2023/05/23 09:21:03;;;;;;;11.60;4.78;;;14.50;99.90;;;;;;5122521;27;19980;-69
2023/05/23 09:23:33;;;;;;;11.85;4.72;;;14.70;99.90;;;;;;5122573;27;20058;-68
2023/05/23 09:26:03;;;;;;;10.65;4.68;;;14.60;99.90;;;;;;5157877;27;20043;-69
2023/05/23 09:28:31;;;;;;;12.00;4.78;;;14.70;99.90;;;;;;5139587;27;20055;-69
2023/05/23 09:31:01;;;;;;;10.43;4.22;;;15.00;99.90;;;;;;5158014;27;20046;-68
2023/05/23 09:33:38;;;;;;;15.55;5.35;;;15.00;99.90;;;;;;5157461;27;20091;-68
2023/05/23 09:36:05;;;;;;;9.18;4.57;;;14.70;99.90;;;;;;5138758;27;20490;-68
2023/05/23 09:38:31;;;;;;;10.73;5.00;;;14.90;99.90;;;;;;5157831;27;20409;-67
2023/05/23 09:40:58;;;;;;;8.40;4.30;;;15.40;99.90;;;;;;5156951;27;20448;-68
2023/05/23 09:43:24;;;;;;;10.23;4.55;;;15.80;99.90;;;;;;5139014;27;20054;-69
2023/05/23 09:45:51;;;;;;;12.23;4.45;;;15.60;99.90;;;;;;5121778;27;20042;-68
2023/05/23 09:48:16;;;;;;;12.73;4.88;;;15.20;99.90;;;;;;5138944;27;20065;-68
2023/05/23 09:50:45;;;;;;;17.50;5.07;;;15.10;99.90;;;;;;5139545;27;20455;-69
2023/05/23 09:53:11;;;;;;;16.15;5.18;;;15.30;99.90;;;;;;5157800;27;20111;-68
2023/05/23 09:55:39;;;;;;;10.05;4.18;;;14.90;99.90;;;;;;5156048;27;20062;-70
2023/05/23 09:58:06;;;;;;;13.95;4.75;;;14.70;99.90;;;;;;5138545;27;20082;-70
2023/05/23 10:00:33;;;;;;;8.88;4.55;;;14.60;99.90;;;;;;5138661;27;20451;-69
2023/05/23 10:03:13;;;;;;;15.07;5.03;;;14.90;99.90;;;;;;5156845;27;20391;-69
2023/05/23 10:05:54;;;;;;;9.40;3.85;;;14.70;99.90;;;;;;5139233;27;20125;-68
2023/05/23 10:08:35;;;;;;;8.90;4.07;;;15.10;99.90;;;;;;5139232;27;20047;-69
2023/05/23 10:11:10;;;;;;;12.80;4.30;;;15.30;99.70;;;;;;5138613;27;20497;-69
2023/05/23 10:13:36;;;;;;;7.82;3.95;;;15.40;99.90;;;;;;5156772;27;20601;-68
2023/05/23 10:16:17;;;;;;;5.93;3.33;;;15.20;99.90;;;;;;5138470;27;20082;-69
2023/05/23 10:18:47;;;;;;;8.80;3.75;;;15.00;99.90;;;;;;5156876;27;20053;-69
2023/05/23 10:21:21;;;;;;;12.23;4.10;;;15.10;99.90;;;;;;5156808;27;20053;-70
2023/05/23 10:23:47;;;;;;;12.50;4.53;;;15.10;99.90;;;;;;5156262;27;20042;-68
2023/05/23 10:26:14;;;;;;;9.13;4.18;;;15.00;99.90;;;;;;5156891;27;20046;-71
2023/05/23 10:28:41;;;;;;;11.65;4.13;;;15.10;99.90;;;;;;5156431;27;20054;-69
2023/05/23 10:31:07;;;;;;;11.98;3.88;;;15.40;99.90;;;;;;5138075;27;20129;-69
2023/05/23 10:33:41;;;;;;;11.27;4.07;;;15.50;99.90;;;;;;5137862;27;20073;-70
2023/05/23 10:36:49;;;;;;;11.82;4.05;;;15.00;99.90;;;;;;5156988;27;20089;-69
2023/05/23 10:39:24;;;;;;;8.38;3.42;;;14.70;99.90;;;;;;5156636;27;20042;-69
2023/05/23 10:42:03;;;;;;;16.08;4.25;;;14.60;99.90;;;;;;5156171;27;20053;-70
2023/05/23 10:44:30;;;;;;;10.30;3.47;;;14.50;99.90;;;;;;5156154;27;20042;-69
2023/05/23 10:47:00;;;;;;;10.20;4.57;;;14.90;99.90;;;;;;5155938;27;20043;-69
2023/05/23 10:49:46;;;;;;;12.85;4.03;;;14.80;99.90;;;;;;5155762;27;20481;-69
2023/05/23 10:52:14;;;;;;;7.60;3.90;;;14.80;99.90;;;;;;5155951;27;20475;-67
2023/05/23 10:54:53;;;;;;;7.80;3.97;;;15.00;99.90;;;;;;5156056;27;20055;-69
2023/05/23 10:57:21;;;;;;;6.80;4.00;;;15.10;99.40;;;;;;5155917;27;20045;-69
2023/05/23 10:59:50;;;;;;;6.78;3.47;;;15.00;99.90;;;;;;5155962;27;20043;-68
2023/05/23 11:02:18;;;;;;;8.30;4.00;;;14.90;99.50;;;;;;5156497;27;20047;-69
2023/05/23 11:04:44;;;;;;;11.30;4.10;;;14.60;99.60;;;;;;5137820;27;20117;-70
2023/05/23 11:07:32;;;;;;;9.98;3.40;;;14.50;99.90;;;;;;5156108;27;20526;-71
2023/05/23 11:10:12;;;;;;;7.30;3.83;;;14.70;99.10;;;;;;5137530;27;20039;-69
2023/05/23 11:12:43;;;;;;;9.40;3.72;;;14.80;99.30;;;;;;5155651;27;20084;-69
2023/05/23 11:15:19;;;;;;;14.00;3.88;;;14.90;99.60;;;;;;5137268;27;20053;-69
2023/05/23 11:17:55;;;;;;;10.30;4.75;;;15.10;99.10;;;;;;5155458;27;20479;-69
2023/05/23 11:20:26;;;;;;;9.85;4.00;;;14.80;98.90;;;;;;5137310;27;20129;-69
2023/05/23 11:23:00;;;;;;;8.70;4.22;;;14.90;99.90;;;;;;5155827;27;20169;-69
2023/05/23 11:25:43;;;;;;;7.00;3.53;;;14.70;99.90;;;;;;5155702;27;20055;-69
2023/05/23 11:28:12;;;;;;;11.13;4.10;;;14.60;98.80;;;;;;5137274;27;20102;-68
2023/05/23 11:30:39;;;;;;;10.43;3.60;;;14.70;99.60;;;;;;5120610;27;20490;-69
2023/05/23 11:33:12;;;;;;;10.85;3.80;;;15.00;99.20;;;;;;5137231;27;20252;-69
2023/05/23 11:35:41;;;;;;;9.48;4.25;;;15.10;98.50;;;;;;5155680;27;20055;-70
2023/05/23 11:38:08;;;;;;;11.15;4.15;;;15.20;98.70;;;;;;5155672;27;20038;-70
2023/05/23 11:40:35;;;;;;;10.63;5.82;;;14.60;98.90;;;;;;5136996;27;20053;-69
2023/05/23 11:43:12;;;;;;;14.48;4.75;;;14.60;99.70;;;;;;5154976;27;20042;-68
2023/05/23 11:45:39;;;;;;;14.23;4.88;;;14.80;99.90;;;;;;5137280;27;20077;-68
2023/05/23 11:48:10;;;;;;;11.35;4.47;;;15.00;99.90;;;;;;5154844;27;20046;-69
2023/05/23 11:51:02;;;;;;;9.73;5.43;;;14.90;99.90;;;;;;5119323;27;20054;-68
2023/05/23 11:53:29;;;;;;;15.65;4.88;;;14.70;99.90;;;;;;5149851;27;20069;-69
2023/05/23 11:55:58;;;;;;;11.27;4.13;;;14.60;99.90;;;;;;5154729;27;20039;-68
2023/05/23 11:58:34;;;;;;;14.95;4.72;;;14.90;99.90;;;;;;5136458;27;20144;-70
2023/05/23 12:01:03;;;;;;;12.02;5.22;;;14.80;99.30;;;;;;5137062;27;20069;-68
2023/05/23 12:03:30;;;;;;;10.48;4.20;;;14.80;99.60;;;;;;5154697;27;20053;-67
2023/05/23 12:05:56;;;;;;;15.45;5.20;;;14.80;99.40;;;;;;5154565;27;20046;-68
2023/05/23 12:08:23;;;;;;;7.40;3.50;;;15.00;99.90;;;;;;5136203;27;20082;-68
2023/05/23 12:11:07;;;;;;;11.65;4.50;;;15.20;98.60;;;;;;5154601;27;20050;-68
2023/05/23 12:13:33;;;;;;;9.75;3.80;;;15.60;97.60;;;;;;5155473;27;20053;-70
2023/05/23 12:16:00;;;;;;;11.50;3.75;;;15.50;98.00;;;;;;5136890;27;20054;-68
2023/05/23 12:18:30;;;;;;;8.98;3.50;;;15.60;97.80;;;;;;5154016;27;20055;-69
2023/05/23 12:21:06;;;;;;;13.32;4.28;;;15.60;96.80;;;;;;5136380;27;20042;-68
2023/05/23 12:23:33;;;;;;;10.57;5.20;;;15.60;97.70;;;;;;5154552;27;20528;-68
2023/05/23 12:25:59;;;;;;;9.18;4.60;;;15.40;98.20;;;;;;5154349;27;20053;-69
2023/05/23 12:28:36;;;;;;;9.18;3.88;;;15.00;98.20;;;;;;5154843;27;20396;-70
2023/05/23 12:31:28;;;;;;;6.95;3.78;;;14.80;98.40;;;;;;5118924;27;20055;-68
2023/05/23 12:33:54;;;;;;;7.07;3.58;;;14.80;97.30;;;;;;5130692;27;20046;-68
2023/05/23 12:36:22;;;;;;;7.00;3.85;;;15.10;98.10;;;;;;5153992;27;20433;-68
2023/05/23 12:38:48;;;;;;;9.75;3.92;;;15.50;97.60;;;;;;5101715;27;20130;-68
2023/05/23 12:41:18;;;;;;;7.90;3.72;;;15.30;96.90;;;;;;5153834;27;20122;-70